sensor_id;sensor_type;location;lat;lon;timestamp;temperature;humidity
74666;DHT22;71408;50.106;8.694;2023-09-08T00:00:30;27.30;48.00
74666;DHT22;71408;50.106;8.694;2023-09-08T00:02:56;27.30;48.00
74666;DHT22;71408;50.106;8.694;2023-09-08T00:05:21;27.20;47.90
74666;DHT22;71408;50.106;8.694;2023-09-08T00:07:46;27.30;48.00
74666;DHT22;71408;50.106;8.694;2023-09-08T00:10:12;27.30;48.00
74666;DHT22;71408;50.106;8.694;2023-09-08T00:12:38;27.30;48.00
74666;DHT22;71408;50.106;8.694;2023-09-08T00:15:04;27.20;48.00
74666;DHT22;71408;50.106;8.694;2023-09-08T00:17:29;27.20;48.00
74666;DHT22;71408;50.106;8.694;2023-09-08T00:19:56;27.20;48.00
74666;DHT22;71408;50.106;8.694;2023-09-08T00:22:22;27.20;48.00
74666;DHT22;71408;50.106;8.694;2023-09-08T00:24:47;27.20;48.10
74666;DHT22;71408;50.106;8.694;2023-09-08T00:27:13;27.20;48.10
74666;DHT22;71408;50.106;8.694;2023-09-08T00:29:39;27.20;48.10
74666;DHT22;71408;50.106;8.694;2023-09-08T00:32:05;27.20;48.00
74666;DHT22;71408;50.106;8.694;2023-09-08T00:34:30;27.20;48.10
74666;DHT22;71408;50.106;8.694;2023-09-08T00:36:56;27.20;48.10
74666;DHT22;71408;50.106;8.694;2023-09-08T00:39:21;27.20;48.10
74666;DHT22;71408;50.106;8.694;2023-09-08T00:41:47;27.20;48.10
74666;DHT22;71408;50.106;8.694;2023-09-08T00:44:12;27.20;48.20
74666;DHT22;71408;50.106;8.694;2023-09-08T00:46:38;27.20;48.20
74666;DHT22;71408;50.106;8.694;2023-09-08T00:49:04;27.20;48.20
74666;DHT22;71408;50.106;8.694;2023-09-08T00:51:30;27.20;48.20
74666;DHT22;71408;50.106;8.694;2023-09-08T00:53:56;27.20;48.20
74666;DHT22;71408;50.106;8.694;2023-09-08T00:56:21;27.20;48.20
74666;DHT22;71408;50.106;8.694;2023-09-08T00:58:47;27.20;48.20
74666;DHT22;71408;50.106;8.694;2023-09-08T01:01:13;27.20;48.20
74666;DHT22;71408;50.106;8.694;2023-09-08T01:03:38;27.20;48.30
74666;DHT22;71408;50.106;8.694;2023-09-08T01:06:04;27.20;48.30
74666;DHT22;71408;50.106;8.694;2023-09-08T01:08:29;27.10;48.30
74666;DHT22;71408;50.106;8.694;2023-09-08T01:10:55;27.10;48.30
74666;DHT22;71408;50.106;8.694;2023-09-08T01:13:21;27.10;48.30
74666;DHT22;71408;50.106;8.694;2023-09-08T01:15:47;27.10;48.40
74666;DHT22;71408;50.106;8.694;2023-09-08T01:18:13;27.20;48.40
74666;DHT22;71408;50.106;8.694;2023-09-08T01:23:11;27.10;48.40
74666;DHT22;71408;50.106;8.694;2023-09-08T01:25:46;27.10;48.40
74666;DHT22;71408;50.106;8.694;2023-09-08T01:28:13;27.10;48.40
74666;DHT22;71408;50.106;8.694;2023-09-08T01:30:40;27.10;48.40
74666;DHT22;71408;50.106;8.694;2023-09-08T01:33:05;27.10;48.50
74666;DHT22;71408;50.106;8.694;2023-09-08T01:35:31;27.10;48.50
74666;DHT22;71408;50.106;8.694;2023-09-08T01:37:57;27.10;48.50
74666;DHT22;71408;50.106;8.694;2023-09-08T01:40:22;27.10;48.40
74666;DHT22;71408;50.106;8.694;2023-09-08T01:42:48;27.10;48.40
74666;DHT22;71408;50.106;8.694;2023-09-08T01:45:14;27.10;48.40
74666;DHT22;71408;50.106;8.694;2023-09-08T01:47:39;27.10;48.50
74666;DHT22;71408;50.106;8.694;2023-09-08T01:50:05;27.00;48.40
74666;DHT22;71408;50.106;8.694;2023-09-08T01:52:31;27.10;48.40
74666;DHT22;71408;50.106;8.694;2023-09-08T01:54:56;27.00;48.40
74666;DHT22;71408;50.106;8.694;2023-09-08T01:57:22;27.00;48.40
74666;DHT22;71408;50.106;8.694;2023-09-08T01:59:47;27.00;48.50
74666;DHT22;71408;50.106;8.694;2023-09-08T02:02:13;27.00;48.40
74666;DHT22;71408;50.106;8.694;2023-09-08T02:04:39;27.00;48.40
74666;DHT22;71408;50.106;8.694;2023-09-08T02:07:04;27.00;48.40
74666;DHT22;71408;50.106;8.694;2023-09-08T02:09:34;27.00;48.40
74666;DHT22;71408;50.106;8.694;2023-09-08T02:12:00;27.00;48.40
74666;DHT22;71408;50.106;8.694;2023-09-08T02:14:25;27.00;48.50
74666;DHT22;71408;50.106;8.694;2023-09-08T02:16:51;27.00;48.50
74666;DHT22;71408;50.106;8.694;2023-09-08T02:19:16;27.00;48.50
74666;DHT22;71408;50.106;8.694;2023-09-08T02:21:42;27.00;48.50
74666;DHT22;71408;50.106;8.694;2023-09-08T02:24:07;27.00;48.50
74666;DHT22;71408;50.106;8.694;2023-09-08T02:26:33;27.00;48.50
74666;DHT22;71408;50.106;8.694;2023-09-08T02:28:59;27.00;49.20
74666;DHT22;71408;50.106;8.694;2023-09-08T02:31:25;26.90;48.50
74666;DHT22;71408;50.106;8.694;2023-09-08T02:33:51;27.00;48.50
74666;DHT22;71408;50.106;8.694;2023-09-08T02:36:16;26.90;48.50
74666;DHT22;71408;50.106;8.694;2023-09-08T02:38:42;26.90;48.50
74666;DHT22;71408;50.106;8.694;2023-09-08T02:41:07;26.90;48.50
74666;DHT22;71408;50.106;8.694;2023-09-08T02:43:33;26.90;48.50
74666;DHT22;71408;50.106;8.694;2023-09-08T02:45:58;26.90;48.50
74666;DHT22;71408;50.106;8.694;2023-09-08T02:48:24;26.90;48.50
74666;DHT22;71408;50.106;8.694;2023-09-08T02:50:49;26.90;48.50
74666;DHT22;71408;50.106;8.694;2023-09-08T02:53:15;26.90;48.50
74666;DHT22;71408;50.106;8.694;2023-09-08T02:55:40;26.90;48.50
74666;DHT22;71408;50.106;8.694;2023-09-08T02:58:06;26.90;48.50
74666;DHT22;71408;50.106;8.694;2023-09-08T03:00:31;26.90;48.50
74666;DHT22;71408;50.106;8.694;2023-09-08T03:02:57;26.90;48.50
74666;DHT22;71408;50.106;8.694;2023-09-08T03:05:22;26.90;48.60
74666;DHT22;71408;50.106;8.694;2023-09-08T03:07:48;26.90;48.50
74666;DHT22;71408;50.106;8.694;2023-09-08T03:10:14;26.80;48.50
74666;DHT22;71408;50.106;8.694;2023-09-08T03:12:39;26.90;48.50
74666;DHT22;71408;50.106;8.694;2023-09-08T03:15:05;26.90;48.50
74666;DHT22;71408;50.106;8.694;2023-09-08T03:17:31;26.90;48.50
74666;DHT22;71408;50.106;8.694;2023-09-08T03:19:56;26.90;48.60
74666;DHT22;71408;50.106;8.694;2023-09-08T03:22:22;26.80;48.40
74666;DHT22;71408;50.106;8.694;2023-09-08T03:24:48;26.80;48.40
74666;DHT22;71408;50.106;8.694;2023-09-08T03:27:13;26.80;48.40
74666;DHT22;71408;50.106;8.694;2023-09-08T03:29:39;26.80;48.40
74666;DHT22;71408;50.106;8.694;2023-09-08T03:32:04;26.80;48.40
74666;DHT22;71408;50.106;8.694;2023-09-08T03:34:30;26.80;48.40
74666;DHT22;71408;50.106;8.694;2023-09-08T03:36:56;26.80;48.30
74666;DHT22;71408;50.106;8.694;2023-09-08T03:39:21;26.80;48.40
74666;DHT22;71408;50.106;8.694;2023-09-08T03:41:46;26.80;48.40
74666;DHT22;71408;50.106;8.694;2023-09-08T03:44:12;26.80;48.40
74666;DHT22;71408;50.106;8.694;2023-09-08T03:46:37;26.80;48.40
74666;DHT22;71408;50.106;8.694;2023-09-08T03:49:03;26.70;48.40
74666;DHT22;71408;50.106;8.694;2023-09-08T03:51:28;26.80;48.40
74666;DHT22;71408;50.106;8.694;2023-09-08T03:53:54;26.80;48.40
74666;DHT22;71408;50.106;8.694;2023-09-08T03:56:19;26.80;48.40
74666;DHT22;71408;50.106;8.694;2023-09-08T03:58:48;26.80;48.40
74666;DHT22;71408;50.106;8.694;2023-09-08T04:01:13;26.80;48.40
74666;DHT22;71408;50.106;8.694;2023-09-08T04:03:39;26.70;48.30
74666;DHT22;71408;50.106;8.694;2023-09-08T04:06:04;26.80;48.40
74666;DHT22;71408;50.106;8.694;2023-09-08T04:08:30;26.80;48.40
74666;DHT22;71408;50.106;8.694;2023-09-08T04:10:55;26.80;48.40
74666;DHT22;71408;50.106;8.694;2023-09-08T04:13:21;26.80;48.40
74666;DHT22;71408;50.106;8.694;2023-09-08T04:15:46;26.80;48.40
74666;DHT22;71408;50.106;8.694;2023-09-08T04:18:12;26.80;48.30
74666;DHT22;71408;50.106;8.694;2023-09-08T04:20:37;26.80;48.40
74666;DHT22;71408;50.106;8.694;2023-09-08T04:23:03;26.80;48.30
74666;DHT22;71408;50.106;8.694;2023-09-08T04:25:28;26.70;48.30
74666;DHT22;71408;50.106;8.694;2023-09-08T04:27:54;26.80;48.30
74666;DHT22;71408;50.106;8.694;2023-09-08T04:30:19;26.70;48.30
74666;DHT22;71408;50.106;8.694;2023-09-08T04:32:44;26.70;48.30
74666;DHT22;71408;50.106;8.694;2023-09-08T04:35:10;26.70;48.30
74666;DHT22;71408;50.106;8.694;2023-09-08T04:37:35;26.70;48.30
74666;DHT22;71408;50.106;8.694;2023-09-08T04:40:02;26.70;48.40
74666;DHT22;71408;50.106;8.694;2023-09-08T04:42:28;26.70;48.30
74666;DHT22;71408;50.106;8.694;2023-09-08T04:44:53;26.70;48.30
74666;DHT22;71408;50.106;8.694;2023-09-08T04:47:19;26.70;48.30
74666;DHT22;71408;50.106;8.694;2023-09-08T04:49:44;26.70;48.30
74666;DHT22;71408;50.106;8.694;2023-09-08T04:52:10;26.70;48.30
74666;DHT22;71408;50.106;8.694;2023-09-08T04:54:36;26.70;48.30
74666;DHT22;71408;50.106;8.694;2023-09-08T04:57:02;26.70;48.30
74666;DHT22;71408;50.106;8.694;2023-09-08T04:59:28;26.70;48.30
74666;DHT22;71408;50.106;8.694;2023-09-08T05:01:53;26.60;48.30
74666;DHT22;71408;50.106;8.694;2023-09-08T05:04:19;26.40;48.50
74666;DHT22;71408;50.106;8.694;2023-09-08T05:06:44;26.20;48.70
74666;DHT22;71408;50.106;8.694;2023-09-08T05:09:10;26.10;48.80
74666;DHT22;71408;50.106;8.694;2023-09-08T05:11:35;26.00;48.90
74666;DHT22;71408;50.106;8.694;2023-09-08T05:14:01;26.00;49.00
74666;DHT22;71408;50.106;8.694;2023-09-08T05:16:27;25.90;48.90
74666;DHT22;71408;50.106;8.694;2023-09-08T05:19:05;25.90;49.00
74666;DHT22;71408;50.106;8.694;2023-09-08T05:21:31;25.90;48.90
74666;DHT22;71408;50.106;8.694;2023-09-08T05:23:56;25.90;48.90
74666;DHT22;71408;50.106;8.694;2023-09-08T05:26:22;25.90;48.80
74666;DHT22;71408;50.106;8.694;2023-09-08T05:28:47;25.80;48.70
74666;DHT22;71408;50.106;8.694;2023-09-08T05:31:13;25.80;48.90
74666;DHT22;71408;50.106;8.694;2023-09-08T05:33:38;25.70;49.00
74666;DHT22;71408;50.106;8.694;2023-09-08T05:36:04;25.70;49.00
74666;DHT22;71408;50.106;8.694;2023-09-08T05:38:29;25.70;49.10
74666;DHT22;71408;50.106;8.694;2023-09-08T05:40:55;25.70;49.10
74666;DHT22;71408;50.106;8.694;2023-09-08T05:43:21;25.70;49.10
74666;DHT22;71408;50.106;8.694;2023-09-08T05:45:46;25.60;49.20
74666;DHT22;71408;50.106;8.694;2023-09-08T05:48:12;25.60;49.20
74666;DHT22;71408;50.106;8.694;2023-09-08T05:50:37;25.70;49.20
74666;DHT22;71408;50.106;8.694;2023-09-08T05:53:03;25.60;49.20
74666;DHT22;71408;50.106;8.694;2023-09-08T05:55:28;25.70;49.20
74666;DHT22;71408;50.106;8.694;2023-09-08T05:57:53;25.70;49.20
74666;DHT22;71408;50.106;8.694;2023-09-08T06:00:19;25.60;49.30
74666;DHT22;71408;50.106;8.694;2023-09-08T06:02:45;25.70;49.30
74666;DHT22;71408;50.106;8.694;2023-09-08T06:05:10;25.70;49.30
74666;DHT22;71408;50.106;8.694;2023-09-08T06:07:36;25.70;49.30
74666;DHT22;71408;50.106;8.694;2023-09-08T06:10:01;25.70;49.30
74666;DHT22;71408;50.106;8.694;2023-09-08T06:12:27;25.70;49.30
74666;DHT22;71408;50.106;8.694;2023-09-08T06:14:52;25.70;49.30
74666;DHT22;71408;50.106;8.694;2023-09-08T06:17:18;25.70;49.30
74666;DHT22;71408;50.106;8.694;2023-09-08T06:19:43;25.70;49.20
74666;DHT22;71408;50.106;8.694;2023-09-08T06:22:08;25.80;49.20
74666;DHT22;71408;50.106;8.694;2023-09-08T06:24:34;25.80;49.10
74666;DHT22;71408;50.106;8.694;2023-09-08T06:27:00;25.80;49.20
74666;DHT22;71408;50.106;8.694;2023-09-08T06:29:26;25.80;49.20
74666;DHT22;71408;50.106;8.694;2023-09-08T06:31:51;25.80;49.30
74666;DHT22;71408;50.106;8.694;2023-09-08T06:34:17;25.80;49.30
74666;DHT22;71408;50.106;8.694;2023-09-08T06:36:46;25.80;49.20
74666;DHT22;71408;50.106;8.694;2023-09-08T06:39:11;25.80;49.10
74666;DHT22;71408;50.106;8.694;2023-09-08T06:41:37;25.80;49.00
74666;DHT22;71408;50.106;8.694;2023-09-08T06:44:02;25.80;49.00
74666;DHT22;71408;50.106;8.694;2023-09-08T06:46:28;25.80;48.90
74666;DHT22;71408;50.106;8.694;2023-09-08T06:48:53;25.80;49.00
74666;DHT22;71408;50.106;8.694;2023-09-08T06:51:18;25.80;49.00
74666;DHT22;71408;50.106;8.694;2023-09-08T06:53:44;25.80;49.10
74666;DHT22;71408;50.106;8.694;2023-09-08T06:56:10;25.70;49.10
74666;DHT22;71408;50.106;8.694;2023-09-08T06:58:35;25.70;49.00
74666;DHT22;71408;50.106;8.694;2023-09-08T07:01:01;25.70;49.00
74666;DHT22;71408;50.106;8.694;2023-09-08T07:03:26;25.70;49.10
74666;DHT22;71408;50.106;8.694;2023-09-08T07:05:52;25.70;49.10
74666;DHT22;71408;50.106;8.694;2023-09-08T07:08:17;25.70;49.10
74666;DHT22;71408;50.106;8.694;2023-09-08T07:10:43;25.70;49.20
74666;DHT22;71408;50.106;8.694;2023-09-08T07:13:09;25.70;49.20
74666;DHT22;71408;50.106;8.694;2023-09-08T07:15:34;25.70;49.30
74666;DHT22;71408;50.106;8.694;2023-09-08T07:18:00;25.80;49.20
74666;DHT22;71408;50.106;8.694;2023-09-08T07:20:25;25.80;49.50
74666;DHT22;71408;50.106;8.694;2023-09-08T07:22:51;25.60;49.70
74666;DHT22;71408;50.106;8.694;2023-09-08T07:25:16;25.50;50.00
74666;DHT22;71408;50.106;8.694;2023-09-08T07:27:42;25.50;50.10
74666;DHT22;71408;50.106;8.694;2023-09-08T07:30:09;25.50;49.90
74666;DHT22;71408;50.106;8.694;2023-09-08T07:32:35;25.50;49.90
74666;DHT22;71408;50.106;8.694;2023-09-08T07:35:00;25.50;50.00
74666;DHT22;71408;50.106;8.694;2023-09-08T07:37:26;25.50;50.00
74666;DHT22;71408;50.106;8.694;2023-09-08T07:39:51;25.50;50.00
74666;DHT22;71408;50.106;8.694;2023-09-08T07:42:17;25.50;49.90
74666;DHT22;71408;50.106;8.694;2023-09-08T07:44:43;25.60;50.00
74666;DHT22;71408;50.106;8.694;2023-09-08T07:47:08;25.60;49.90
74666;DHT22;71408;50.106;8.694;2023-09-08T07:49:34;25.60;49.80
74666;DHT22;71408;50.106;8.694;2023-09-08T07:51:59;25.70;49.80
74666;DHT22;71408;50.106;8.694;2023-09-08T07:54:25;25.70;49.70
74666;DHT22;71408;50.106;8.694;2023-09-08T07:56:50;25.70;49.60
74666;DHT22;71408;50.106;8.694;2023-09-08T07:59:16;25.80;49.50
74666;DHT22;71408;50.106;8.694;2023-09-08T08:01:41;25.80;49.30
74666;DHT22;71408;50.106;8.694;2023-09-08T08:04:07;25.70;49.20
74666;DHT22;71408;50.106;8.694;2023-09-08T08:06:33;25.80;49.20
74666;DHT22;71408;50.106;8.694;2023-09-08T08:08:58;25.80;49.20
74666;DHT22;71408;50.106;8.694;2023-09-08T08:11:24;25.80;49.20
74666;DHT22;71408;50.106;8.694;2023-09-08T08:13:51;25.80;49.10
74666;DHT22;71408;50.106;8.694;2023-09-08T08:16:16;25.90;49.10
74666;DHT22;71408;50.106;8.694;2023-09-08T08:18:42;26.00;48.80
74666;DHT22;71408;50.106;8.694;2023-09-08T08:21:07;26.10;48.70
74666;DHT22;71408;50.106;8.694;2023-09-08T08:23:33;26.10;48.80
74666;DHT22;71408;50.106;8.694;2023-09-08T08:25:59;26.10;48.80
74666;DHT22;71408;50.106;8.694;2023-09-08T08:28:24;26.20;48.70
74666;DHT22;71408;50.106;8.694;2023-09-08T08:30:50;26.30;48.60
74666;DHT22;71408;50.106;8.694;2023-09-08T08:33:16;26.30;48.50
74666;DHT22;71408;50.106;8.694;2023-09-08T08:35:41;26.30;48.60
74666;DHT22;71408;50.106;8.694;2023-09-08T08:38:07;26.30;48.60
74666;DHT22;71408;50.106;8.694;2023-09-08T08:40:32;26.30;48.50
74666;DHT22;71408;50.106;8.694;2023-09-08T08:42:59;26.30;48.60
74666;DHT22;71408;50.106;8.694;2023-09-08T08:45:25;26.30;48.40
74666;DHT22;71408;50.106;8.694;2023-09-08T08:47:51;26.40;48.40
74666;DHT22;71408;50.106;8.694;2023-09-08T08:50:17;26.50;48.40
74666;DHT22;71408;50.106;8.694;2023-09-08T08:52:43;26.50;48.20
74666;DHT22;71408;50.106;8.694;2023-09-08T08:55:09;26.50;48.20
74666;DHT22;71408;50.106;8.694;2023-09-08T08:57:36;26.50;48.20
74666;DHT22;71408;50.106;8.694;2023-09-08T09:00:03;26.60;48.20
74666;DHT22;71408;50.106;8.694;2023-09-08T09:02:32;26.60;48.20
74666;DHT22;71408;50.106;8.694;2023-09-08T09:04:58;26.60;48.10
74666;DHT22;71408;50.106;8.694;2023-09-08T09:07:24;26.60;48.10
74666;DHT22;71408;50.106;8.694;2023-09-08T09:09:50;26.70;48.00
74666;DHT22;71408;50.106;8.694;2023-09-08T09:12:16;26.70;48.00
74666;DHT22;71408;50.106;8.694;2023-09-08T09:14:51;26.70;48.00
74666;DHT22;71408;50.106;8.694;2023-09-08T09:17:17;26.80;48.00
74666;DHT22;71408;50.106;8.694;2023-09-08T09:19:43;26.70;47.90
74666;DHT22;71408;50.106;8.694;2023-09-08T09:22:08;26.80;48.00
74666;DHT22;71408;50.106;8.694;2023-09-08T09:24:35;26.80;47.90
74666;DHT22;71408;50.106;8.694;2023-09-08T09:27:02;26.80;47.80
74666;DHT22;71408;50.106;8.694;2023-09-08T09:29:29;26.80;47.80
74666;DHT22;71408;50.106;8.694;2023-09-08T09:32:02;26.90;47.80
74666;DHT22;71408;50.106;8.694;2023-09-08T09:34:28;26.90;47.50
74666;DHT22;71408;50.106;8.694;2023-09-08T09:36:53;26.90;47.60
74666;DHT22;71408;50.106;8.694;2023-09-08T09:39:19;26.90;47.30
74666;DHT22;71408;50.106;8.694;2023-09-08T09:41:46;26.90;47.20
74666;DHT22;71408;50.106;8.694;2023-09-08T09:44:12;27.00;47.00
74666;DHT22;71408;50.106;8.694;2023-09-08T09:46:37;27.00;46.90
74666;DHT22;71408;50.106;8.694;2023-09-08T09:49:03;27.10;46.80
74666;DHT22;71408;50.106;8.694;2023-09-08T09:51:29;27.10;46.70
74666;DHT22;71408;50.106;8.694;2023-09-08T09:53:54;27.10;46.60
74666;DHT22;71408;50.106;8.694;2023-09-08T09:56:20;27.20;46.50
74666;DHT22;71408;50.106;8.694;2023-09-08T09:58:47;27.10;46.70
74666;DHT22;71408;50.106;8.694;2023-09-08T10:01:13;27.20;46.50
74666;DHT22;71408;50.106;8.694;2023-09-08T10:03:39;27.20;46.40
74666;DHT22;71408;50.106;8.694;2023-09-08T10:06:05;27.20;46.40
74666;DHT22;71408;50.106;8.694;2023-09-08T10:08:31;27.20;46.50
74666;DHT22;71408;50.106;8.694;2023-09-08T10:11:00;27.20;46.50
74666;DHT22;71408;50.106;8.694;2023-09-08T10:13:30;27.30;46.50
74666;DHT22;71408;50.106;8.694;2023-09-08T10:15:57;27.30;46.50
74666;DHT22;71408;50.106;8.694;2023-09-08T10:18:23;27.30;46.40
74666;DHT22;71408;50.106;8.694;2023-09-08T10:20:49;27.30;46.30
74666;DHT22;71408;50.106;8.694;2023-09-08T10:23:23;27.30;46.40
74666;DHT22;71408;50.106;8.694;2023-09-08T10:25:50;27.40;46.40
74666;DHT22;71408;50.106;8.694;2023-09-08T10:28:20;27.40;46.30
74666;DHT22;71408;50.106;8.694;2023-09-08T10:30:46;27.40;46.30
74666;DHT22;71408;50.106;8.694;2023-09-08T10:33:13;27.40;46.10
74666;DHT22;71408;50.106;8.694;2023-09-08T10:35:39;27.40;46.10
74666;DHT22;71408;50.106;8.694;2023-09-08T10:38:21;27.40;46.10
74666;DHT22;71408;50.106;8.694;2023-09-08T10:40:46;27.50;45.90
74666;DHT22;71408;50.106;8.694;2023-09-08T10:43:12;27.60;45.80
74666;DHT22;71408;50.106;8.694;2023-09-08T10:45:39;27.60;45.90
74666;DHT22;71408;50.106;8.694;2023-09-08T10:48:04;27.60;45.70
74666;DHT22;71408;50.106;8.694;2023-09-08T10:50:35;27.60;45.60
74666;DHT22;71408;50.106;8.694;2023-09-08T10:53:12;27.60;45.70
74666;DHT22;71408;50.106;8.694;2023-09-08T10:55:41;27.60;45.80
74666;DHT22;71408;50.106;8.694;2023-09-08T10:58:11;27.60;45.70
74666;DHT22;71408;50.106;8.694;2023-09-08T11:06:23;27.70;45.80
74666;DHT22;71408;50.106;8.694;2023-09-08T11:08:49;27.70;45.80
74666;DHT22;71408;50.106;8.694;2023-09-08T11:11:18;27.70;45.80
74666;DHT22;71408;50.106;8.694;2023-09-08T11:13:43;27.70;45.80
74666;DHT22;71408;50.106;8.694;2023-09-08T11:16:13;27.80;45.80
74666;DHT22;71408;50.106;8.694;2023-09-08T11:18:38;27.80;45.90
74666;DHT22;71408;50.106;8.694;2023-09-08T11:21:06;27.90;45.90
74666;DHT22;71408;50.106;8.694;2023-09-08T11:23:32;27.90;45.90
74666;DHT22;71408;50.106;8.694;2023-09-08T11:25:58;27.90;46.10
74666;DHT22;71408;50.106;8.694;2023-09-08T11:28:24;27.90;46.00
74666;DHT22;71408;50.106;8.694;2023-09-08T11:30:52;27.90;46.10
74666;DHT22;71408;50.106;8.694;2023-09-08T11:33:20;28.00;46.10
74666;DHT22;71408;50.106;8.694;2023-09-08T11:35:50;28.00;46.00
74666;DHT22;71408;50.106;8.694;2023-09-08T11:38:15;28.00;46.00
74666;DHT22;71408;50.106;8.694;2023-09-08T11:40:41;28.00;46.10
74666;DHT22;71408;50.106;8.694;2023-09-08T11:43:07;28.00;45.90
74666;DHT22;71408;50.106;8.694;2023-09-08T11:45:35;28.10;45.80
74666;DHT22;71408;50.106;8.694;2023-09-08T11:48:01;28.10;45.90
74666;DHT22;71408;50.106;8.694;2023-09-08T11:50:26;28.00;45.90
74666;DHT22;71408;50.106;8.694;2023-09-08T11:52:52;28.00;45.80
74666;DHT22;71408;50.106;8.694;2023-09-08T11:55:18;28.10;45.80
74666;DHT22;71408;50.106;8.694;2023-09-08T11:57:46;28.10;45.80
74666;DHT22;71408;50.106;8.694;2023-09-08T12:00:12;28.10;45.70
74666;DHT22;71408;50.106;8.694;2023-09-08T12:02:42;28.20;45.70
74666;DHT22;71408;50.106;8.694;2023-09-08T12:05:27;28.20;45.60
74666;DHT22;71408;50.106;8.694;2023-09-08T12:07:56;28.20;45.70
74666;DHT22;71408;50.106;8.694;2023-09-08T12:10:21;28.20;45.60
74666;DHT22;71408;50.106;8.694;2023-09-08T12:12:50;28.20;45.60
74666;DHT22;71408;50.106;8.694;2023-09-08T12:15:33;28.20;45.30
74666;DHT22;71408;50.106;8.694;2023-09-08T12:17:59;28.30;45.20
74666;DHT22;71408;50.106;8.694;2023-09-08T12:20:24;28.40;45.30
74666;DHT22;71408;50.106;8.694;2023-09-08T12:22:50;28.30;45.30
74666;DHT22;71408;50.106;8.694;2023-09-08T12:25:16;28.30;45.30
74666;DHT22;71408;50.106;8.694;2023-09-08T12:27:41;28.40;45.30
74666;DHT22;71408;50.106;8.694;2023-09-08T12:30:07;28.30;45.20
74666;DHT22;71408;50.106;8.694;2023-09-08T12:32:33;28.40;45.20
74666;DHT22;71408;50.106;8.694;2023-09-08T12:35:02;28.40;45.20
74666;DHT22;71408;50.106;8.694;2023-09-08T12:37:29;28.40;45.20
74666;DHT22;71408;50.106;8.694;2023-09-08T12:39:55;28.40;45.30
74666;DHT22;71408;50.106;8.694;2023-09-08T12:42:21;28.40;45.30
74666;DHT22;71408;50.106;8.694;2023-09-08T12:44:50;28.50;45.30
74666;DHT22;71408;50.106;8.694;2023-09-08T12:47:16;28.50;45.30
74666;DHT22;71408;50.106;8.694;2023-09-08T12:49:41;28.60;45.20
74666;DHT22;71408;50.106;8.694;2023-09-08T12:52:07;28.60;45.10
74666;DHT22;71408;50.106;8.694;2023-09-08T12:54:32;28.60;45.00
74666;DHT22;71408;50.106;8.694;2023-09-08T12:56:58;28.70;44.80
74666;DHT22;71408;50.106;8.694;2023-09-08T12:59:23;28.80;44.70
74666;DHT22;71408;50.106;8.694;2023-09-08T13:01:49;28.90;44.30
74666;DHT22;71408;50.106;8.694;2023-09-08T13:04:14;28.90;44.20
74666;DHT22;71408;50.106;8.694;2023-09-08T13:06:40;28.90;44.20
74666;DHT22;71408;50.106;8.694;2023-09-08T13:09:05;28.90;44.10
74666;DHT22;71408;50.106;8.694;2023-09-08T13:11:32;28.90;44.20
74666;DHT22;71408;50.106;8.694;2023-09-08T13:13:58;28.80;44.10
74666;DHT22;71408;50.106;8.694;2023-09-08T13:16:23;28.80;44.10
74666;DHT22;71408;50.106;8.694;2023-09-08T13:18:49;28.80;44.10
74666;DHT22;71408;50.106;8.694;2023-09-08T13:21:14;28.80;44.00
74666;DHT22;71408;50.106;8.694;2023-09-08T13:23:40;28.90;44.00
74666;DHT22;71408;50.106;8.694;2023-09-08T13:26:05;28.90;43.80
74666;DHT22;71408;50.106;8.694;2023-09-08T13:28:31;28.90;43.80
74666;DHT22;71408;50.106;8.694;2023-09-08T13:30:56;29.00;43.70
74666;DHT22;71408;50.106;8.694;2023-09-08T13:33:22;29.00;43.80
74666;DHT22;71408;50.106;8.694;2023-09-08T13:35:47;28.90;43.80
74666;DHT22;71408;50.106;8.694;2023-09-08T13:38:13;28.90;43.80
74666;DHT22;71408;50.106;8.694;2023-09-08T13:40:38;28.90;43.90
74666;DHT22;71408;50.106;8.694;2023-09-08T13:43:04;28.90;43.80
74666;DHT22;71408;50.106;8.694;2023-09-08T13:45:29;28.90;43.80
74666;DHT22;71408;50.106;8.694;2023-09-08T13:47:55;28.90;43.80
74666;DHT22;71408;50.106;8.694;2023-09-08T13:50:20;28.90;43.60
74666;DHT22;71408;50.106;8.694;2023-09-08T13:52:49;28.80;43.60
74666;DHT22;71408;50.106;8.694;2023-09-08T13:55:14;28.80;44.20
74666;DHT22;71408;50.106;8.694;2023-09-08T13:57:40;28.80;43.60
74666;DHT22;71408;50.106;8.694;2023-09-08T14:00:05;28.80;43.60
74666;DHT22;71408;50.106;8.694;2023-09-08T14:02:34;28.80;43.50
74666;DHT22;71408;50.106;8.694;2023-09-08T14:04:59;28.80;43.60
74666;DHT22;71408;50.106;8.694;2023-09-08T14:07:24;28.80;43.50
74666;DHT22;71408;50.106;8.694;2023-09-08T14:09:50;28.80;43.50
74666;DHT22;71408;50.106;8.694;2023-09-08T14:12:15;28.80;43.60
74666;DHT22;71408;50.106;8.694;2023-09-08T14:14:41;28.70;43.50
74666;DHT22;71408;50.106;8.694;2023-09-08T14:17:06;28.80;43.50
74666;DHT22;71408;50.106;8.694;2023-09-08T14:19:32;28.80;43.40
74666;DHT22;71408;50.106;8.694;2023-09-08T14:21:57;28.80;43.30
74666;DHT22;71408;50.106;8.694;2023-09-08T14:24:23;28.80;43.40
74666;DHT22;71408;50.106;8.694;2023-09-08T14:26:48;28.70;43.40
74666;DHT22;71408;50.106;8.694;2023-09-08T14:29:14;28.70;43.40
74666;DHT22;71408;50.106;8.694;2023-09-08T14:31:39;28.70;43.60
74666;DHT22;71408;50.106;8.694;2023-09-08T14:34:05;28.70;43.60
74666;DHT22;71408;50.106;8.694;2023-09-08T14:36:30;28.70;43.70
74666;DHT22;71408;50.106;8.694;2023-09-08T14:38:56;28.70;43.70
74666;DHT22;71408;50.106;8.694;2023-09-08T14:41:22;28.70;43.80
74666;DHT22;71408;50.106;8.694;2023-09-08T14:43:47;28.70;43.90
74666;DHT22;71408;50.106;8.694;2023-09-08T14:46:13;28.60;43.90
74666;DHT22;71408;50.106;8.694;2023-09-08T14:48:38;28.60;43.80
74666;DHT22;71408;50.106;8.694;2023-09-08T14:51:04;28.60;43.90
74666;DHT22;71408;50.106;8.694;2023-09-08T14:53:30;28.60;43.90
74666;DHT22;71408;50.106;8.694;2023-09-08T14:55:59;28.60;44.00
74666;DHT22;71408;50.106;8.694;2023-09-08T14:58:24;28.60;43.90
74666;DHT22;71408;50.106;8.694;2023-09-08T15:00:51;28.60;43.80
74666;DHT22;71408;50.106;8.694;2023-09-08T15:03:16;28.60;43.80
74666;DHT22;71408;50.106;8.694;2023-09-08T15:05:42;28.60;43.90
74666;DHT22;71408;50.106;8.694;2023-09-08T15:08:08;28.60;43.90
74666;DHT22;71408;50.106;8.694;2023-09-08T15:10:33;28.60;43.90
74666;DHT22;71408;50.106;8.694;2023-09-08T15:12:59;28.60;43.90
74666;DHT22;71408;50.106;8.694;2023-09-08T15:15:24;28.50;44.00
74666;DHT22;71408;50.106;8.694;2023-09-08T15:17:51;28.50;44.00
74666;DHT22;71408;50.106;8.694;2023-09-08T15:20:16;28.50;44.10
74666;DHT22;71408;50.106;8.694;2023-09-08T15:22:42;28.50;44.20
74666;DHT22;71408;50.106;8.694;2023-09-08T15:25:07;28.50;44.30
74666;DHT22;71408;50.106;8.694;2023-09-08T15:27:33;28.50;44.30
74666;DHT22;71408;50.106;8.694;2023-09-08T15:29:58;28.50;44.30